sensor_id;sensor_type;location;lat;lon;timestamp;P1;durP1;ratioP1;P2;durP2;ratioP2
40204;SDS011;26963;42.666;23.366;2022-10-31T00:00:28;8.10;;;3.88;;
40204;SDS011;26963;42.666;23.366;2022-10-31T00:02:54;7.10;;;3.70;;
40204;SDS011;26963;42.666;23.366;2022-10-31T00:05:19;6.55;;;3.92;;
40204;SDS011;26963;42.666;23.366;2022-10-31T00:07:45;7.38;;;4.43;;
40204;SDS011;26963;42.666;23.366;2022-10-31T00:10:10;6.00;;;4.20;;
40204;SDS011;26963;42.666;23.366;2022-10-31T00:12:36;7.18;;;4.05;;
40204;SDS011;26963;42.666;23.366;2022-10-31T00:15:01;6.78;;;4.05;;
40204;SDS011;26963;42.666;23.366;2022-10-31T00:17:27;9.10;;;4.68;;
40204;SDS011;26963;42.666;23.366;2022-10-31T00:19:52;9.88;;;4.78;;
40204;SDS011;26963;42.666;23.366;2022-10-31T00:22:18;9.18;;;4.20;;
40204;SDS011;26963;42.666;23.366;2022-10-31T00:24:43;8.25;;;4.45;;
40204;SDS011;26963;42.666;23.366;2022-10-31T00:27:09;6.85;;;4.28;;
40204;SDS011;26963;42.666;23.366;2022-10-31T00:29:34;6.88;;;3.80;;
40204;SDS011;26963;42.666;23.366;2022-10-31T00:32:00;9.52;;;4.43;;
40204;SDS011;26963;42.666;23.366;2022-10-31T00:34:25;6.90;;;4.10;;
40204;SDS011;26963;42.666;23.366;2022-10-31T00:36:51;9.63;;;4.50;;
40204;SDS011;26963;42.666;23.366;2022-10-31T00:39:16;8.60;;;4.07;;
40204;SDS011;26963;42.666;23.366;2022-10-31T00:41:42;7.70;;;4.10;;
40204;SDS011;26963;42.666;23.366;2022-10-31T00:44:07;6.80;;;4.20;;
40204;SDS011;26963;42.666;23.366;2022-10-31T00:46:33;8.10;;;3.97;;
40204;SDS011;26963;42.666;23.366;2022-10-31T00:48:58;8.57;;;4.38;;
40204;SDS011;26963;42.666;23.366;2022-10-31T00:51:24;6.15;;;4.15;;
40204;SDS011;26963;42.666;23.366;2022-10-31T00:53:49;6.70;;;3.90;;
40204;SDS011;26963;42.666;23.366;2022-10-31T00:56:15;7.70;;;4.40;;
40204;SDS011;26963;42.666;23.366;2022-10-31T00:58:40;6.90;;;4.18;;
40204;SDS011;26963;42.666;23.366;2022-10-31T01:01:06;7.57;;;4.10;;
40204;SDS011;26963;42.666;23.366;2022-10-31T01:03:32;6.28;;;4.32;;
40204;SDS011;26963;42.666;23.366;2022-10-31T01:06:03;8.30;;;4.75;;
40204;SDS011;26963;42.666;23.366;2022-10-31T01:08:32;9.57;;;4.40;;
40204;SDS011;26963;42.666;23.366;2022-10-31T01:11:10;8.07;;;4.80;;
40204;SDS011;26963;42.666;23.366;2022-10-31T01:13:38;9.07;;;4.93;;
40204;SDS011;26963;42.666;23.366;2022-10-31T01:16:04;10.00;;;5.82;;
40204;SDS011;26963;42.666;23.366;2022-10-31T01:18:31;10.93;;;6.63;;
40204;SDS011;26963;42.666;23.366;2022-10-31T01:20:58;12.30;;;7.10;;
40204;SDS011;26963;42.666;23.366;2022-10-31T01:23:33;10.07;;;6.50;;
40204;SDS011;26963;42.666;23.366;2022-10-31T01:26:00;10.85;;;6.93;;
40204;SDS011;26963;42.666;23.366;2022-10-31T01:28:26;10.18;;;6.32;;
40204;SDS011;26963;42.666;23.366;2022-10-31T01:30:51;10.73;;;7.15;;
40204;SDS011;26963;42.666;23.366;2022-10-31T01:33:17;12.85;;;7.35;;
40204;SDS011;26963;42.666;23.366;2022-10-31T01:35:42;13.90;;;8.30;;
40204;SDS011;26963;42.666;23.366;2022-10-31T01:38:08;13.18;;;8.45;;
40204;SDS011;26963;42.666;23.366;2022-10-31T01:40:33;12.30;;;8.88;;
40204;SDS011;26963;42.666;23.366;2022-10-31T01:42:59;13.95;;;8.75;;
40204;SDS011;26963;42.666;23.366;2022-10-31T01:45:24;13.05;;;7.97;;
40204;SDS011;26963;42.666;23.366;2022-10-31T01:47:50;12.93;;;8.65;;
40204;SDS011;26963;42.666;23.366;2022-10-31T01:50:21;12.93;;;8.23;;
40204;SDS011;26963;42.666;23.366;2022-10-31T01:52:53;11.55;;;7.50;;
40204;SDS011;26963;42.666;23.366;2022-10-31T01:55:21;13.55;;;8.73;;
40204;SDS011;26963;42.666;23.366;2022-10-31T01:57:56;13.70;;;7.82;;
40204;SDS011;26963;42.666;23.366;2022-10-31T02:00:26;12.48;;;7.97;;
40204;SDS011;26963;42.666;23.366;2022-10-31T02:02:52;11.82;;;7.65;;
40204;SDS011;26963;42.666;23.366;2022-10-31T02:05:21;10.65;;;7.90;;
40204;SDS011;26963;42.666;23.366;2022-10-31T02:08:03;11.90;;;8.20;;
40204;SDS011;26963;42.666;23.366;2022-10-31T02:10:31;11.32;;;7.57;;
40204;SDS011;26963;42.666;23.366;2022-10-31T02:12:59;12.02;;;7.10;;
40204;SDS011;26963;42.666;23.366;2022-10-31T02:15:28;11.43;;;7.38;;
40204;SDS011;26963;42.666;23.366;2022-10-31T02:17:54;11.93;;;8.30;;
40204;SDS011;26963;42.666;23.366;2022-10-31T02:20:21;11.07;;;7.32;;
40204;SDS011;26963;42.666;23.366;2022-10-31T02:25:44;14.98;;;7.90;;
40204;SDS011;26963;42.666;23.366;2022-10-31T02:34:22;12.68;;;7.63;;
40204;SDS011;26963;42.666;23.366;2022-10-31T02:37:12;13.13;;;7.53;;
40204;SDS011;26963;42.666;23.366;2022-10-31T02:42:18;11.32;;;6.75;;
40204;SDS011;26963;42.666;23.366;2022-10-31T02:47:38;11.82;;;6.63;;
40204;SDS011;26963;42.666;23.366;2022-10-31T02:50:15;11.95;;;5.80;;
40204;SDS011;26963;42.666;23.366;2022-10-31T02:52:49;7.63;;;5.38;;
40204;SDS011;26963;42.666;23.366;2022-10-31T02:57:48;11.77;;;6.28;;
40204;SDS011;26963;42.666;23.366;2022-10-31T03:00:15;11.05;;;6.63;;
40204;SDS011;26963;42.666;23.366;2022-10-31T03:16:13;13.00;;;7.50;;
40204;SDS011;26963;42.666;23.366;2022-10-31T03:18:55;12.90;;;7.13;;
40204;SDS011;26963;42.666;23.366;2022-10-31T03:24:00;11.40;;;7.28;;
40204;SDS011;26963;42.666;23.366;2022-10-31T03:26:27;10.15;;;6.50;;
40204;SDS011;26963;42.666;23.366;2022-10-31T03:29:01;12.10;;;7.68;;
40204;SDS011;26963;42.666;23.366;2022-10-31T03:31:30;13.93;;;7.63;;
40204;SDS011;26963;42.666;23.366;2022-10-31T03:34:17;13.02;;;7.57;;
40204;SDS011;26963;42.666;23.366;2022-10-31T03:36:44;13.23;;;7.65;;
40204;SDS011;26963;42.666;23.366;2022-10-31T03:39:13;13.73;;;7.57;;
40204;SDS011;26963;42.666;23.366;2022-10-31T03:41:41;11.15;;;7.28;;
40204;SDS011;26963;42.666;23.366;2022-10-31T03:44:12;10.32;;;6.28;;
40204;SDS011;26963;42.666;23.366;2022-10-31T03:46:41;10.68;;;6.40;;
40204;SDS011;26963;42.666;23.366;2022-10-31T03:49:08;11.35;;;6.90;;
40204;SDS011;26963;42.666;23.366;2022-10-31T03:51:37;10.85;;;6.72;;
40204;SDS011;26963;42.666;23.366;2022-10-31T03:54:08;13.02;;;6.72;;
40204;SDS011;26963;42.666;23.366;2022-10-31T03:56:55;9.43;;;6.50;;
40204;SDS011;26963;42.666;23.366;2022-10-31T03:59:31;13.80;;;8.82;;
40204;SDS011;26963;42.666;23.366;2022-10-31T04:02:05;16.10;;;11.20;;
40204;SDS011;26963;42.666;23.366;2022-10-31T04:04:33;19.65;;;10.43;;
40204;SDS011;26963;42.666;23.366;2022-10-31T04:07:00;11.57;;;6.50;;
40204;SDS011;26963;42.666;23.366;2022-10-31T04:09:28;10.57;;;6.88;;
40204;SDS011;26963;42.666;23.366;2022-10-31T04:11:58;15.45;;;7.50;;
40204;SDS011;26963;42.666;23.366;2022-10-31T04:14:30;10.52;;;6.85;;
40204;SDS011;26963;42.666;23.366;2022-10-31T04:16:58;11.88;;;6.57;;
40204;SDS011;26963;42.666;23.366;2022-10-31T04:19:26;12.73;;;6.47;;
40204;SDS011;26963;42.666;23.366;2022-10-31T04:21:52;14.35;;;7.15;;
40204;SDS011;26963;42.666;23.366;2022-10-31T04:24:17;13.18;;;7.32;;
40204;SDS011;26963;42.666;23.366;2022-10-31T04:26:43;12.68;;;7.65;;
40204;SDS011;26963;42.666;23.366;2022-10-31T04:29:08;11.82;;;6.70;;
40204;SDS011;26963;42.666;23.366;2022-10-31T04:31:34;14.65;;;7.22;;
40204;SDS011;26963;42.666;23.366;2022-10-31T04:33:59;11.82;;;7.20;;
40204;SDS011;26963;42.666;23.366;2022-10-31T04:36:25;12.07;;;7.43;;
40204;SDS011;26963;42.666;23.366;2022-10-31T04:38:50;11.02;;;7.13;;
40204;SDS011;26963;42.666;23.366;2022-10-31T04:41:16;10.02;;;6.65;;
40204;SDS011;26963;42.666;23.366;2022-10-31T04:43:41;11.73;;;7.03;;
40204;SDS011;26963;42.666;23.366;2022-10-31T04:46:07;12.18;;;8.27;;
40204;SDS011;26963;42.666;23.366;2022-10-31T04:48:32;11.15;;;7.65;;
40204;SDS011;26963;42.666;23.366;2022-10-31T04:51:01;12.90;;;7.93;;
40204;SDS011;26963;42.666;23.366;2022-10-31T04:53:27;17.08;;;10.43;;
40204;SDS011;26963;42.666;23.366;2022-10-31T04:55:54;13.82;;;9.07;;
40204;SDS011;26963;42.666;23.366;2022-10-31T04:58:19;15.35;;;9.35;;
40204;SDS011;26963;42.666;23.366;2022-10-31T05:00:45;11.45;;;7.75;;
40204;SDS011;26963;42.666;23.366;2022-10-31T05:03:10;12.95;;;8.98;;
40204;SDS011;26963;42.666;23.366;2022-10-31T05:05:36;15.95;;;8.90;;
40204;SDS011;26963;42.666;23.366;2022-10-31T05:08:01;16.38;;;10.88;;
40204;SDS011;26963;42.666;23.366;2022-10-31T05:10:28;14.35;;;9.73;;
40204;SDS011;26963;42.666;23.366;2022-10-31T05:12:56;16.88;;;9.15;;
40204;SDS011;26963;42.666;23.366;2022-10-31T05:15:23;12.95;;;8.63;;
40204;SDS011;26963;42.666;23.366;2022-10-31T05:17:50;17.95;;;9.00;;
40204;SDS011;26963;42.666;23.366;2022-10-31T05:20:17;12.30;;;9.02;;
40204;SDS011;26963;42.666;23.366;2022-10-31T05:22:45;16.17;;;8.88;;
40204;SDS011;26963;42.666;23.366;2022-10-31T05:25:15;12.77;;;10.30;;
40204;SDS011;26963;42.666;23.366;2022-10-31T05:27:42;14.15;;;9.13;;
40204;SDS011;26963;42.666;23.366;2022-10-31T05:30:09;13.75;;;10.38;;
40204;SDS011;26963;42.666;23.366;2022-10-31T05:32:39;13.85;;;10.07;;
40204;SDS011;26963;42.666;23.366;2022-10-31T05:35:06;15.35;;;10.10;;
40204;SDS011;26963;42.666;23.366;2022-10-31T05:37:36;13.32;;;9.85;;
40204;SDS011;26963;42.666;23.366;2022-10-31T05:40:03;17.23;;;10.10;;
40204;SDS011;26963;42.666;23.366;2022-10-31T05:42:29;15.93;;;10.25;;
40204;SDS011;26963;42.666;23.366;2022-10-31T05:44:55;15.30;;;10.15;;
40204;SDS011;26963;42.666;23.366;2022-10-31T05:47:20;16.83;;;10.35;;
40204;SDS011;26963;42.666;23.366;2022-10-31T05:49:46;17.15;;;10.13;;
40204;SDS011;26963;42.666;23.366;2022-10-31T05:52:11;17.25;;;11.82;;
40204;SDS011;26963;42.666;23.366;2022-10-31T05:54:37;22.30;;;11.82;;
40204;SDS011;26963;42.666;23.366;2022-10-31T05:57:02;18.63;;;11.38;;
40204;SDS011;26963;42.666;23.366;2022-10-31T05:59:28;18.17;;;10.52;;
40204;SDS011;26963;42.666;23.366;2022-10-31T06:01:53;16.38;;;10.88;;
40204;SDS011;26963;42.666;23.366;2022-10-31T06:04:19;19.90;;;10.98;;
40204;SDS011;26963;42.666;23.366;2022-10-31T06:06:44;18.95;;;10.65;;
40204;SDS011;26963;42.666;23.366;2022-10-31T06:09:10;17.65;;;10.75;;
40204;SDS011;26963;42.666;23.366;2022-10-31T06:11:35;18.05;;;10.90;;
40204;SDS011;26963;42.666;23.366;2022-10-31T06:14:01;25.05;;;11.23;;
40204;SDS011;26963;42.666;23.366;2022-10-31T06:16:27;21.42;;;11.30;;
40204;SDS011;26963;42.666;23.366;2022-10-31T06:18:53;19.73;;;10.95;;
40204;SDS011;26963;42.666;23.366;2022-10-31T06:21:18;17.15;;;10.88;;
40204;SDS011;26963;42.666;23.366;2022-10-31T06:23:43;21.98;;;11.73;;
40204;SDS011;26963;42.666;23.366;2022-10-31T06:26:09;20.85;;;12.18;;
40204;SDS011;26963;42.666;23.366;2022-10-31T06:28:34;21.15;;;12.77;;
40204;SDS011;26963;42.666;23.366;2022-10-31T06:31:00;17.50;;;13.02;;
40204;SDS011;26963;42.666;23.366;2022-10-31T06:33:25;19.95;;;12.10;;
40204;SDS011;26963;42.666;23.366;2022-10-31T06:35:51;16.75;;;12.30;;
40204;SDS011;26963;42.666;23.366;2022-10-31T06:38:16;15.98;;;11.27;;
40204;SDS011;26963;42.666;23.366;2022-10-31T06:40:42;23.08;;;14.25;;
40204;SDS011;26963;42.666;23.366;2022-10-31T06:43:08;22.90;;;13.50;;
40204;SDS011;26963;42.666;23.366;2022-10-31T06:45:33;25.80;;;14.65;;
40204;SDS011;26963;42.666;23.366;2022-10-31T06:47:59;24.08;;;14.05;;
40204;SDS011;26963;42.666;23.366;2022-10-31T06:50:24;18.15;;;12.07;;
40204;SDS011;26963;42.666;23.366;2022-10-31T06:52:51;19.98;;;11.68;;
40204;SDS011;26963;42.666;23.366;2022-10-31T06:55:20;16.65;;;11.07;;
40204;SDS011;26963;42.666;23.366;2022-10-31T06:57:54;20.30;;;12.00;;
40204;SDS011;26963;42.666;23.366;2022-10-31T07:00:20;19.88;;;12.40;;
40204;SDS011;26963;42.666;23.366;2022-10-31T07:02:56;16.92;;;11.32;;
40204;SDS011;26963;42.666;23.366;2022-10-31T07:05:23;18.67;;;11.98;;
40204;SDS011;26963;42.666;23.366;2022-10-31T07:07:55;22.20;;;12.52;;
40204;SDS011;26963;42.666;23.366;2022-10-31T07:10:32;18.20;;;11.90;;
40204;SDS011;26963;42.666;23.366;2022-10-31T07:13:00;18.20;;;12.23;;
40204;SDS011;26963;42.666;23.366;2022-10-31T07:15:32;22.58;;;12.73;;
40204;SDS011;26963;42.666;23.366;2022-10-31T07:18:00;19.92;;;12.68;;
40204;SDS011;26963;42.666;23.366;2022-10-31T07:20:26;19.48;;;12.95;;
40204;SDS011;26963;42.666;23.366;2022-10-31T07:22:52;19.45;;;12.32;;
40204;SDS011;26963;42.666;23.366;2022-10-31T07:25:18;19.27;;;12.57;;
40204;SDS011;26963;42.666;23.366;2022-10-31T07:27:44;19.63;;;12.13;;
40204;SDS011;26963;42.666;23.366;2022-10-31T07:30:10;17.85;;;11.75;;
40204;SDS011;26963;42.666;23.366;2022-10-31T07:32:42;21.33;;;13.23;;
40204;SDS011;26963;42.666;23.366;2022-10-31T07:35:13;17.42;;;13.15;;
40204;SDS011;26963;42.666;23.366;2022-10-31T07:37:40;17.83;;;12.40;;
40204;SDS011;26963;42.666;23.366;2022-10-31T07:40:06;17.40;;;12.68;;
40204;SDS011;26963;42.666;23.366;2022-10-31T07:42:36;21.60;;;12.30;;
40204;SDS011;26963;42.666;23.366;2022-10-31T07:45:07;20.95;;;13.38;;
40204;SDS011;26963;42.666;23.366;2022-10-31T07:47:44;19.20;;;13.13;;
40204;SDS011;26963;42.666;23.366;2022-10-31T07:50:16;18.88;;;14.35;;
40204;SDS011;26963;42.666;23.366;2022-10-31T07:52:43;18.45;;;14.35;;
40204;SDS011;26963;42.666;23.366;2022-10-31T07:55:09;22.08;;;14.27;;
40204;SDS011;26963;42.666;23.366;2022-10-31T07:57:35;21.20;;;13.55;;
40204;SDS011;26963;42.666;23.366;2022-10-31T08:00:10;27.42;;;15.10;;
40204;SDS011;26963;42.666;23.366;2022-10-31T08:02:36;19.92;;;14.63;;
40204;SDS011;26963;42.666;23.366;2022-10-31T08:05:02;21.83;;;14.43;;
40204;SDS011;26963;42.666;23.366;2022-10-31T08:07:28;19.98;;;14.30;;
40204;SDS011;26963;42.666;23.366;2022-10-31T08:09:54;16.90;;;12.80;;
40204;SDS011;26963;42.666;23.366;2022-10-31T08:12:20;20.42;;;12.88;;
40204;SDS011;26963;42.666;23.366;2022-10-31T08:14:46;17.05;;;12.85;;
40204;SDS011;26963;42.666;23.366;2022-10-31T08:17:12;17.52;;;12.55;;
40204;SDS011;26963;42.666;23.366;2022-10-31T08:19:37;19.40;;;12.82;;
40204;SDS011;26963;42.666;23.366;2022-10-31T08:22:03;20.65;;;13.25;;
40204;SDS011;26963;42.666;23.366;2022-10-31T08:24:28;17.40;;;11.70;;
40204;SDS011;26963;42.666;23.366;2022-10-31T08:26:54;18.00;;;13.40;;
40204;SDS011;26963;42.666;23.366;2022-10-31T08:29:19;20.73;;;12.35;;
40204;SDS011;26963;42.666;23.366;2022-10-31T08:31:45;20.85;;;12.45;;
40204;SDS011;26963;42.666;23.366;2022-10-31T08:34:10;22.65;;;13.25;;
40204;SDS011;26963;42.666;23.366;2022-10-31T08:36:36;20.30;;;13.75;;
40204;SDS011;26963;42.666;23.366;2022-10-31T08:39:01;19.60;;;12.18;;
40204;SDS011;26963;42.666;23.366;2022-10-31T08:41:27;21.20;;;12.70;;
40204;SDS011;26963;42.666;23.366;2022-10-31T08:43:53;18.88;;;12.57;;
40204;SDS011;26963;42.666;23.366;2022-10-31T08:46:19;19.02;;;11.90;;
40204;SDS011;26963;42.666;23.366;2022-10-31T08:48:47;18.42;;;12.63;;
40204;SDS011;26963;42.666;23.366;2022-10-31T08:51:13;18.25;;;12.82;;
40204;SDS011;26963;42.666;23.366;2022-10-31T08:53:38;22.55;;;12.88;;
40204;SDS011;26963;42.666;23.366;2022-10-31T08:56:04;22.98;;;13.68;;
40204;SDS011;26963;42.666;23.366;2022-10-31T08:58:30;19.30;;;11.20;;
40204;SDS011;26963;42.666;23.366;2022-10-31T09:00:55;20.77;;;12.85;;
40204;SDS011;26963;42.666;23.366;2022-10-31T09:03:25;13.93;;;10.52;;
40204;SDS011;26963;42.666;23.366;2022-10-31T09:05:58;16.80;;;10.38;;
40204;SDS011;26963;42.666;23.366;2022-10-31T09:08:25;15.90;;;9.98;;
40204;SDS011;26963;42.666;23.366;2022-10-31T09:10:51;19.73;;;10.57;;
40204;SDS011;26963;42.666;23.366;2022-10-31T09:13:20;17.70;;;10.57;;
40204;SDS011;26963;42.666;23.366;2022-10-31T09:15:47;15.75;;;10.88;;
40204;SDS011;26963;42.666;23.366;2022-10-31T09:18:14;20.80;;;10.98;;
40204;SDS011;26963;42.666;23.366;2022-10-31T09:20:42;21.00;;;10.15;;
40204;SDS011;26963;42.666;23.366;2022-10-31T09:23:13;20.52;;;9.98;;
40204;SDS011;26963;42.666;23.366;2022-10-31T09:25:43;18.55;;;10.80;;
40204;SDS011;26963;42.666;23.366;2022-10-31T09:28:10;18.08;;;10.35;;
40204;SDS011;26963;42.666;23.366;2022-10-31T09:30:37;16.42;;;10.05;;
40204;SDS011;26963;42.666;23.366;2022-10-31T09:33:08;22.95;;;9.68;;
40204;SDS011;26963;42.666;23.366;2022-10-31T09:35:36;17.00;;;8.82;;
40204;SDS011;26963;42.666;23.366;2022-10-31T09:38:03;18.42;;;9.38;;
40204;SDS011;26963;42.666;23.366;2022-10-31T09:46:19;17.08;;;10.85;;
40204;SDS011;26963;42.666;23.366;2022-10-31T09:49:02;34.22;;;10.30;;
40204;SDS011;26963;42.666;23.366;2022-10-31T09:51:59;17.27;;;10.15;;
40204;SDS011;26963;42.666;23.366;2022-10-31T09:56:56;17.70;;;11.02;;
40204;SDS011;26963;42.666;23.366;2022-10-31T09:59:29;17.20;;;10.82;;
40204;SDS011;26963;42.666;23.366;2022-10-31T10:04:56;17.67;;;10.77;;
40204;SDS011;26963;42.666;23.366;2022-10-31T10:10:05;14.40;;;9.68;;
40204;SDS011;26963;42.666;23.366;2022-10-31T10:15:55;31.98;;;12.20;;
40204;SDS011;26963;42.666;23.366;2022-10-31T10:18:48;31.17;;;14.05;;
40204;SDS011;26963;42.666;23.366;2022-10-31T10:24:01;17.75;;;9.73;;
40204;SDS011;26963;42.666;23.366;2022-10-31T10:26:36;13.80;;;7.45;;
40204;SDS011;26963;42.666;23.366;2022-10-31T10:32:42;15.07;;;7.63;;
40204;SDS011;26963;42.666;23.366;2022-10-31T10:35:24;13.35;;;6.50;;
40204;SDS011;26963;42.666;23.366;2022-10-31T10:40:48;11.68;;;6.45;;
40204;SDS011;26963;42.666;23.366;2022-10-31T10:49:15;11.10;;;5.88;;
40204;SDS011;26963;42.666;23.366;2022-10-31T10:59:46;11.77;;;6.80;;
40204;SDS011;26963;42.666;23.366;2022-10-31T11:02:17;15.10;;;7.95;;
40204;SDS011;26963;42.666;23.366;2022-10-31T11:04:45;9.93;;;4.97;;
40204;SDS011;26963;42.666;23.366;2022-10-31T11:07:14;10.00;;;4.63;;
40204;SDS011;26963;42.666;23.366;2022-10-31T11:09:40;9.35;;;4.15;;
40204;SDS011;26963;42.666;23.366;2022-10-31T11:13:00;8.07;;;4.03;;
40204;SDS011;26963;42.666;23.366;2022-10-31T11:15:00;7.57;;;4.70;;
40204;SDS011;26963;42.666;23.366;2022-10-31T11:20:16;11.90;;;5.65;;
40204;SDS011;26963;42.666;23.366;2022-10-31T11:23:28;12.15;;;5.13;;
40204;SDS011;26963;42.666;23.366;2022-10-31T11:25:49;9.93;;;3.97;;
40204;SDS011;26963;42.666;23.366;2022-10-31T11:28:17;11.50;;;4.07;;
40204;SDS011;26963;42.666;23.366;2022-10-31T11:30:43;9.40;;;4.25;;
40204;SDS011;26963;42.666;23.366;2022-10-31T11:33:19;10.10;;;4.30;;
40204;SDS011;26963;42.666;23.366;2022-10-31T11:35:53;10.85;;;4.68;;
40204;SDS011;26963;42.666;23.366;2022-10-31T11:38:20;9.98;;;4.55;;
40204;SDS011;26963;42.666;23.366;2022-10-31T11:40:58;11.77;;;4.78;;
40204;SDS011;26963;42.666;23.366;2022-10-31T11:45:56;11.60;;;4.55;;
40204;SDS011;26963;42.666;23.366;2022-10-31T11:48:22;8.80;;;4.00;;
40204;SDS011;26963;42.666;23.366;2022-10-31T11:50:56;10.63;;;4.78;;
40204;SDS011;26963;42.666;23.366;2022-10-31T11:53:27;9.55;;;4.22;;
40204;SDS011;26963;42.666;23.366;2022-10-31T11:56:12;14.30;;;4.10;;
40204;SDS011;26963;42.666;23.366;2022-10-31T11:58:40;8.65;;;4.05;;
40204;SDS011;26963;42.666;23.366;2022-10-31T12:01:08;11.10;;;4.45;;
40204;SDS011;26963;42.666;23.366;2022-10-31T12:06:24;13.02;;;4.63;;
40204;SDS011;26963;42.666;23.366;2022-10-31T12:08:56;8.88;;;4.20;;
40204;SDS011;26963;42.666;23.366;2022-10-31T12:16:29;8.43;;;4.28;;
40204;SDS011;26963;42.666;23.366;2022-10-31T12:19:15;11.57;;;3.60;;
40204;SDS011;26963;42.666;23.366;2022-10-31T12:47:21;7.40;;;3.42;;
40204;SDS011;26963;42.666;23.366;2022-10-31T12:53:16;10.48;;;6.07;;
40204;SDS011;26963;42.666;23.366;2022-10-31T13:01:21;11.88;;;5.18;;
40204;SDS011;26963;42.666;23.366;2022-10-31T13:04:16;11.35;;;4.10;;
40204;SDS011;26963;42.666;23.366;2022-10-31T13:07:00;10.20;;;4.72;;
40204;SDS011;26963;42.666;23.366;2022-10-31T13:09:32;12.10;;;4.77;;
40204;SDS011;26963;42.666;23.366;2022-10-31T13:12:03;11.80;;;4.85;;
40204;SDS011;26963;42.666;23.366;2022-10-31T13:17:03;10.30;;;5.18;;
40204;SDS011;26963;42.666;23.366;2022-10-31T13:19:34;8.63;;;4.30;;
40204;SDS011;26963;42.666;23.366;2022-10-31T13:22:22;10.93;;;4.32;;
40204;SDS011;26963;42.666;23.366;2022-10-31T13:27:45;12.13;;;4.28;;
40204;SDS011;26963;42.666;23.366;2022-10-31T13:30:21;9.90;;;4.40;;
40204;SDS011;26963;42.666;23.366;2022-10-31T13:35:21;15.20;;;6.43;;
40204;SDS011;26963;42.666;23.366;2022-10-31T13:40:45;22.88;;;10.75;;
40204;SDS011;26963;42.666;23.366;2022-10-31T13:43:29;19.88;;;6.07;;
40204;SDS011;26963;42.666;23.366;2022-10-31T13:46:20;8.18;;;3.58;;
40204;SDS011;26963;42.666;23.366;2022-10-31T13:48:50;14.45;;;5.20;;
40204;SDS011;26963;42.666;23.366;2022-10-31T13:51:23;12.27;;;5.13;;
40204;SDS011;26963;42.666;23.366;2022-10-31T13:56:20;8.02;;;4.20;;
40204;SDS011;26963;42.666;23.366;2022-10-31T14:01:29;17.13;;;7.30;;
40204;SDS011;26963;42.666;23.366;2022-10-31T14:06:41;11.27;;;4.65;;
40204;SDS011;26963;42.666;23.366;2022-10-31T14:11:52;12.50;;;4.70;;
40204;SDS011;26963;42.666;23.366;2022-10-31T14:14:18;10.13;;;4.93;;
40204;SDS011;26963;42.666;23.366;2022-10-31T14:16:45;11.32;;;3.53;;
40204;SDS011;26963;42.666;23.366;2022-10-31T14:19:16;8.23;;;3.90;;
40204;SDS011;26963;42.666;23.366;2022-10-31T14:21:44;11.45;;;3.92;;
40204;SDS011;26963;42.666;23.366;2022-10-31T14:26:50;10.30;;;3.97;;
40204;SDS011;26963;42.666;23.366;2022-10-31T14:29:28;10.82;;;3.80;;
40204;SDS011;26963;42.666;23.366;2022-10-31T14:34:27;9.18;;;3.95;;
40204;SDS011;26963;42.666;23.366;2022-10-31T14:51:01;11.45;;;4.05;;
40204;SDS011;26963;42.666;23.366;2022-10-31T14:53:34;12.95;;;4.15;;
40204;SDS011;26963;42.666;23.366;2022-10-31T14:56:08;13.75;;;7.80;;
40204;SDS011;26963;42.666;23.366;2022-10-31T14:58:39;19.30;;;13.27;;
40204;SDS011;26963;42.666;23.366;2022-10-31T15:01:27;15.73;;;9.73;;
40204;SDS011;26963;42.666;23.366;2022-10-31T15:04:00;15.95;;;7.75;;
40204;SDS011;26963;42.666;23.366;2022-10-31T15:06:49;11.85;;;4.63;;
40204;SDS011;26963;42.666;23.366;2022-10-31T15:09:26;16.98;;;4.18;;
40204;SDS011;26963;42.666;23.366;2022-10-31T15:11:55;13.10;;;5.20;;
40204;SDS011;26963;42.666;23.366;2022-10-31T15:14:24;10.95;;;4.25;;
40204;SDS011;26963;42.666;23.366;2022-10-31T15:16:58;12.13;;;4.50;;
40204;SDS011;26963;42.666;23.366;2022-10-31T15:19:27;19.02;;;4.85;;
40204;SDS011;26963;42.666;23.366;2022-10-31T15:21:55;15.20;;;4.72;;
40204;SDS011;26963;42.666;23.366;2022-10-31T15:24:23;12.43;;;3.75;;
40204;SDS011;26963;42.666;23.366;2022-10-31T15:26:54;12.13;;;3.55;;
40204;SDS011;26963;42.666;23.366;2022-10-31T15:29:21;13.57;;;3.50;;
40204;SDS011;26963;42.666;23.366;2022-10-31T15:31:49;12.02;;;3.20;;
40204;SDS011;26963;42.666;23.366;2022-10-31T15:36:53;17.35;;;3.67;;
40204;SDS011;26963;42.666;23.366;2022-10-31T15:39:19;10.95;;;3.10;;
40204;SDS011;26963;42.666;23.366;2022-10-31T15:41:51;14.07;;;3.50;;
40204;SDS011;26963;42.666;23.366;2022-10-31T15:44:26;10.93;;;3.97;;
40204;SDS011;26963;42.666;23.366;2022-10-31T15:49:36;14.85;;;4.47;;
40204;SDS011;26963;42.666;23.366;2022-10-31T15:52:14;13.45;;;3.85;;
40204;SDS011;26963;42.666;23.366;2022-10-31T15:54:45;16.35;;;4.68;;
40204;SDS011;26963;42.666;23.366;2022-10-31T15:57:13;11.98;;;4.05;;
40204;SDS011;26963;42.666;23.366;2022-10-31T15:59:41;16.63;;;5.80;;
40204;SDS011;26963;42.666;23.366;2022-10-31T16:02:10;19.58;;;6.90;;
40204;SDS011;26963;42.666;23.366;2022-10-31T16:04:46;24.08;;;7.82;;
40204;SDS011;26963;42.666;23.366;2022-10-31T16:07:14;22.58;;;8.82;;
40204;SDS011;26963;42.666;23.366;2022-10-31T16:09:52;29.95;;;9.18;;
40204;SDS011;26963;42.666;23.366;2022-10-31T16:12:21;31.85;;;10.23;;
40204;SDS011;26963;42.666;23.366;2022-10-31T16:14:49;25.23;;;9.65;;
40204;SDS011;26963;42.666;23.366;2022-10-31T16:17:16;27.13;;;9.50;;
40204;SDS011;26963;42.666;23.366;2022-10-31T16:19:53;26.90;;;9.55;;
40204;SDS011;26963;42.666;23.366;2022-10-31T16:22:36;30.52;;;10.18;;
40204;SDS011;26963;42.666;23.366;2022-10-31T16:25:08;27.85;;;9.43;;
40204;SDS011;26963;42.666;23.366;2022-10-31T16:27:37;33.50;;;10.55;;
40204;SDS011;26963;42.666;23.366;2022-10-31T16:30:27;24.13;;;9.13;;
40204;SDS011;26963;42.666;23.366;2022-10-31T16:32:56;27.67;;;9.95;;
40204;SDS011;26963;42.666;23.366;2022-10-31T16:35:25;26.05;;;9.55;;
40204;SDS011;26963;42.666;23.366;2022-10-31T16:37:53;34.08;;;9.55;;
40204;SDS011;26963;42.666;23.366;2022-10-31T16:40:19;30.95;;;10.48;;
40204;SDS011;26963;42.666;23.366;2022-10-31T16:42:46;28.55;;;9.10;;
40204;SDS011;26963;42.666;23.366;2022-10-31T16:45:18;20.15;;;7.93;;
40204;SDS011;26963;42.666;23.366;2022-10-31T16:47:48;22.42;;;8.38;;
40204;SDS011;26963;42.666;23.366;2022-10-31T16:50:16;22.73;;;8.30;;
40204;SDS011;26963;42.666;23.366;2022-10-31T16:52:44;20.25;;;8.50;;
40204;SDS011;26963;42.666;23.366;2022-10-31T16:55:11;23.95;;;8.57;;
40204;SDS011;26963;42.666;23.366;2022-10-31T16:57:38;25.73;;;8.88;;
40204;SDS011;26963;42.666;23.366;2022-10-31T17:00:12;29.45;;;10.35;;
40204;SDS011;26963;42.666;23.366;2022-10-31T17:02:38;21.35;;;8.70;;
40204;SDS011;26963;42.666;23.366;2022-10-31T17:05:04;30.90;;;8.82;;
40204;SDS011;26963;42.666;23.366;2022-10-31T17:07:29;20.67;;;8.30;;
40204;SDS011;26963;42.666;23.366;2022-10-31T17:09:55;24.70;;;7.35;;
40204;SDS011;26963;42.666;23.366;2022-10-31T17:12:21;23.90;;;8.30;;
40204;SDS011;26963;42.666;23.366;2022-10-31T17:14:50;27.35;;;8.82;;
40204;SDS011;26963;42.666;23.366;2022-10-31T17:17:17;20.70;;;8.15;;